sensor_id;sensor_type;location;lat;lon;timestamp;temperature;humidity
2999;DHT22;1509;51.964;7.628;2022-12-05T00:00:51;3.00;99.90
2999;DHT22;1509;51.964;7.628;2022-12-05T00:03:17;3.00;99.90
2999;DHT22;1509;51.964;7.628;2022-12-05T00:05:43;3.00;99.90
2999;DHT22;1509;51.964;7.628;2022-12-05T00:08:08;3.00;99.90
2999;DHT22;1509;51.964;7.628;2022-12-05T00:10:38;3.00;99.90
2999;DHT22;1509;51.964;7.628;2022-12-05T00:13:04;3.00;99.90
2999;DHT22;1509;51.964;7.628;2022-12-05T00:15:30;3.00;99.90
2999;DHT22;1509;51.964;7.628;2022-12-05T00:17:55;3.00;99.90
2999;DHT22;1509;51.964;7.628;2022-12-05T00:20:21;3.00;99.90
2999;DHT22;1509;51.964;7.628;2022-12-05T00:22:47;3.00;99.90
2999;DHT22;1509;51.964;7.628;2022-12-05T00:25:12;3.00;99.90
2999;DHT22;1509;51.964;7.628;2022-12-05T00:27:38;3.00;99.90
2999;DHT22;1509;51.964;7.628;2022-12-05T00:30:05;3.00;99.90
2999;DHT22;1509;51.964;7.628;2022-12-05T00:32:31;2.90;99.90
2999;DHT22;1509;51.964;7.628;2022-12-05T00:34:57;2.90;99.90
2999;DHT22;1509;51.964;7.628;2022-12-05T00:37:22;2.90;99.90
2999;DHT22;1509;51.964;7.628;2022-12-05T00:39:48;2.90;99.90
2999;DHT22;1509;51.964;7.628;2022-12-05T00:42:14;2.90;99.90
2999;DHT22;1509;51.964;7.628;2022-12-05T00:44:39;2.80;99.90
2999;DHT22;1509;51.964;7.628;2022-12-05T00:47:05;2.90;99.90
2999;DHT22;1509;51.964;7.628;2022-12-05T00:49:31;2.90;99.90
2999;DHT22;1509;51.964;7.628;2022-12-05T00:51:56;2.90;99.90
2999;DHT22;1509;51.964;7.628;2022-12-05T00:54:22;2.90;99.90
2999;DHT22;1509;51.964;7.628;2022-12-05T00:56:47;2.90;99.90
2999;DHT22;1509;51.964;7.628;2022-12-05T00:59:16;3.00;99.90
2999;DHT22;1509;51.964;7.628;2022-12-05T01:01:42;2.90;99.90
2999;DHT22;1509;51.964;7.628;2022-12-05T01:04:23;2.90;99.90
2999;DHT22;1509;51.964;7.628;2022-12-05T01:06:50;2.90;99.90
2999;DHT22;1509;51.964;7.628;2022-12-05T01:09:19;2.90;99.90
2999;DHT22;1509;51.964;7.628;2022-12-05T01:11:45;2.90;99.90
2999;DHT22;1509;51.964;7.628;2022-12-05T01:14:15;2.90;99.90
2999;DHT22;1509;51.964;7.628;2022-12-05T01:16:43;2.90;99.90
2999;DHT22;1509;51.964;7.628;2022-12-05T01:19:30;2.90;99.90
2999;DHT22;1509;51.964;7.628;2022-12-05T01:21:56;2.90;99.90
2999;DHT22;1509;51.964;7.628;2022-12-05T01:24:24;2.90;99.90
2999;DHT22;1509;51.964;7.628;2022-12-05T01:26:50;3.00;99.90
2999;DHT22;1509;51.964;7.628;2022-12-05T01:29:18;3.00;99.90
2999;DHT22;1509;51.964;7.628;2022-12-05T01:31:44;2.90;99.90
2999;DHT22;1509;51.964;7.628;2022-12-05T01:34:12;2.90;99.90
2999;DHT22;1509;51.964;7.628;2022-12-05T01:36:38;3.00;99.90
2999;DHT22;1509;51.964;7.628;2022-12-05T01:39:05;3.00;99.90
2999;DHT22;1509;51.964;7.628;2022-12-05T01:41:34;3.00;99.90
2999;DHT22;1509;51.964;7.628;2022-12-05T01:44:57;3.00;99.90
2999;DHT22;1509;51.964;7.628;2022-12-05T01:46:54;3.00;99.90
2999;DHT22;1509;51.964;7.628;2022-12-05T01:49:38;3.00;99.90
2999;DHT22;1509;51.964;7.628;2022-12-05T01:52:10;3.00;99.90
2999;DHT22;1509;51.964;7.628;2022-12-05T01:54:38;3.10;99.90
2999;DHT22;1509;51.964;7.628;2022-12-05T01:57:07;3.00;99.90
2999;DHT22;1509;51.964;7.628;2022-12-05T01:59:38;3.10;99.90
2999;DHT22;1509;51.964;7.628;2022-12-05T02:02:05;3.10;99.90
2999;DHT22;1509;51.964;7.628;2022-12-05T02:04:36;3.10;99.90
2999;DHT22;1509;51.964;7.628;2022-12-05T02:07:02;3.00;99.90
2999;DHT22;1509;51.964;7.628;2022-12-05T02:09:28;3.00;99.90
2999;DHT22;1509;51.964;7.628;2022-12-05T02:11:59;3.00;99.90
2999;DHT22;1509;51.964;7.628;2022-12-05T02:29:05;3.00;99.90
2999;DHT22;1509;51.964;7.628;2022-12-05T02:34:13;3.00;99.90
2999;DHT22;1509;51.964;7.628;2022-12-05T02:36:49;2.90;99.90
2999;DHT22;1509;51.964;7.628;2022-12-05T02:39:26;2.90;99.90
2999;DHT22;1509;51.964;7.628;2022-12-05T02:44:58;2.90;99.90
2999;DHT22;1509;51.964;7.628;2022-12-05T02:47:32;2.90;99.90
2999;DHT22;1509;51.964;7.628;2022-12-05T02:50:00;2.90;99.90
2999;DHT22;1509;51.964;7.628;2022-12-05T02:52:26;2.90;99.90
2999;DHT22;1509;51.964;7.628;2022-12-05T02:54:54;2.90;99.90
2999;DHT22;1509;51.964;7.628;2022-12-05T02:57:21;3.00;99.90
2999;DHT22;1509;51.964;7.628;2022-12-05T02:59:46;3.00;99.90
2999;DHT22;1509;51.964;7.628;2022-12-05T03:02:30;3.00;99.90
2999;DHT22;1509;51.964;7.628;2022-12-05T03:05:03;3.00;99.90
2999;DHT22;1509;51.964;7.628;2022-12-05T03:07:37;3.00;99.90
2999;DHT22;1509;51.964;7.628;2022-12-05T03:10:06;3.00;99.90
2999;DHT22;1509;51.964;7.628;2022-12-05T03:12:40;3.00;99.90
2999;DHT22;1509;51.964;7.628;2022-12-05T03:15:14;3.10;99.90
2999;DHT22;1509;51.964;7.628;2022-12-05T03:18:05;3.10;99.90
2999;DHT22;1509;51.964;7.628;2022-12-05T03:20:44;3.00;99.90
2999;DHT22;1509;51.964;7.628;2022-12-05T03:23:24;3.00;99.90
2999;DHT22;1509;51.964;7.628;2022-12-05T03:26:09;3.10;99.90
2999;DHT22;1509;51.964;7.628;2022-12-05T03:29:09;3.10;99.90
2999;DHT22;1509;51.964;7.628;2022-12-05T03:34:17;3.00;99.90
2999;DHT22;1509;51.964;7.628;2022-12-05T03:36:48;3.00;99.90
2999;DHT22;1509;51.964;7.628;2022-12-05T03:39:23;3.00;99.90
2999;DHT22;1509;51.964;7.628;2022-12-05T03:42:02;3.00;99.90
2999;DHT22;1509;51.964;7.628;2022-12-05T03:50:02;3.00;99.90
2999;DHT22;1509;51.964;7.628;2022-12-05T03:52:47;3.00;99.90
2999;DHT22;1509;51.964;7.628;2022-12-05T03:55:15;3.10;99.90
2999;DHT22;1509;51.964;7.628;2022-12-05T03:57:51;3.10;99.90
2999;DHT22;1509;51.964;7.628;2022-12-05T04:00:21;3.00;99.90
2999;DHT22;1509;51.964;7.628;2022-12-05T04:03:10;3.00;99.90
2999;DHT22;1509;51.964;7.628;2022-12-05T04:05:51;3.00;99.90
2999;DHT22;1509;51.964;7.628;2022-12-05T04:08:58;3.00;99.90
2999;DHT22;1509;51.964;7.628;2022-12-05T04:11:20;3.00;99.90
2999;DHT22;1509;51.964;7.628;2022-12-05T04:13:51;3.00;99.90
2999;DHT22;1509;51.964;7.628;2022-12-05T04:17:03;3.00;99.90
2999;DHT22;1509;51.964;7.628;2022-12-05T04:19:51;3.00;99.90
2999;DHT22;1509;51.964;7.628;2022-12-05T04:22:37;3.00;99.90
2999;DHT22;1509;51.964;7.628;2022-12-05T04:25:05;3.00;99.90
2999;DHT22;1509;51.964;7.628;2022-12-05T04:31:05;3.10;99.90
2999;DHT22;1509;51.964;7.628;2022-12-05T04:33:51;3.00;99.90
2999;DHT22;1509;51.964;7.628;2022-12-05T04:36:37;3.00;99.90
2999;DHT22;1509;51.964;7.628;2022-12-05T04:39:18;3.00;99.90
2999;DHT22;1509;51.964;7.628;2022-12-05T04:41:50;3.00;99.90
2999;DHT22;1509;51.964;7.628;2022-12-05T04:44:20;3.00;99.90
2999;DHT22;1509;51.964;7.628;2022-12-05T04:46:50;3.10;99.90
2999;DHT22;1509;51.964;7.628;2022-12-05T04:49:21;3.10;99.90
2999;DHT22;1509;51.964;7.628;2022-12-05T04:51:54;3.00;99.90
2999;DHT22;1509;51.964;7.628;2022-12-05T04:54:33;3.10;99.90
2999;DHT22;1509;51.964;7.628;2022-12-05T04:59:51;3.00;99.90
2999;DHT22;1509;51.964;7.628;2022-12-05T05:02:20;3.00;99.90
2999;DHT22;1509;51.964;7.628;2022-12-05T05:04:51;3.00;99.90
2999;DHT22;1509;51.964;7.628;2022-12-05T05:07:18;3.00;99.90
2999;DHT22;1509;51.964;7.628;2022-12-05T05:09:44;3.00;99.90
2999;DHT22;1509;51.964;7.628;2022-12-05T05:12:10;3.00;99.90
2999;DHT22;1509;51.964;7.628;2022-12-05T05:14:36;3.00;99.90
2999;DHT22;1509;51.964;7.628;2022-12-05T05:17:02;3.00;99.90
2999;DHT22;1509;51.964;7.628;2022-12-05T05:19:28;3.00;99.90
2999;DHT22;1509;51.964;7.628;2022-12-05T05:21:56;3.00;99.90
2999;DHT22;1509;51.964;7.628;2022-12-05T05:24:22;3.00;99.90
2999;DHT22;1509;51.964;7.628;2022-12-05T05:26:50;3.10;99.90
2999;DHT22;1509;51.964;7.628;2022-12-05T05:29:16;3.10;99.90
2999;DHT22;1509;51.964;7.628;2022-12-05T05:31:42;3.10;99.90
2999;DHT22;1509;51.964;7.628;2022-12-05T05:34:09;3.00;99.90
2999;DHT22;1509;51.964;7.628;2022-12-05T05:36:35;3.10;99.90
2999;DHT22;1509;51.964;7.628;2022-12-05T05:39:03;3.10;99.90
2999;DHT22;1509;51.964;7.628;2022-12-05T05:41:31;3.10;99.90
2999;DHT22;1509;51.964;7.628;2022-12-05T05:43:57;3.10;99.90
2999;DHT22;1509;51.964;7.628;2022-12-05T05:46:26;3.10;99.90
2999;DHT22;1509;51.964;7.628;2022-12-05T05:48:52;3.10;99.90
2999;DHT22;1509;51.964;7.628;2022-12-05T05:51:18;3.10;99.90
2999;DHT22;1509;51.964;7.628;2022-12-05T05:53:44;3.10;99.90
2999;DHT22;1509;51.964;7.628;2022-12-05T05:56:15;3.10;99.90
2999;DHT22;1509;51.964;7.628;2022-12-05T05:58:41;3.10;99.90
2999;DHT22;1509;51.964;7.628;2022-12-05T06:01:13;3.10;99.90
2999;DHT22;1509;51.964;7.628;2022-12-05T06:03:39;3.10;99.90
2999;DHT22;1509;51.964;7.628;2022-12-05T06:06:07;3.10;99.90
2999;DHT22;1509;51.964;7.628;2022-12-05T06:08:35;3.10;99.90
2999;DHT22;1509;51.964;7.628;2022-12-05T06:11:09;3.10;99.90
2999;DHT22;1509;51.964;7.628;2022-12-05T06:13:35;3.20;99.90
2999;DHT22;1509;51.964;7.628;2022-12-05T06:16:01;3.20;99.90
2999;DHT22;1509;51.964;7.628;2022-12-05T06:18:28;3.20;99.90
2999;DHT22;1509;51.964;7.628;2022-12-05T06:20:55;3.10;99.90
2999;DHT22;1509;51.964;7.628;2022-12-05T06:23:22;3.20;99.90
2999;DHT22;1509;51.964;7.628;2022-12-05T06:25:49;3.10;99.90
2999;DHT22;1509;51.964;7.628;2022-12-05T06:28:15;3.20;99.90
2999;DHT22;1509;51.964;7.628;2022-12-05T06:30:41;3.20;99.90
2999;DHT22;1509;51.964;7.628;2022-12-05T06:33:07;3.20;99.90
2999;DHT22;1509;51.964;7.628;2022-12-05T06:35:32;3.20;99.90
2999;DHT22;1509;51.964;7.628;2022-12-05T06:37:58;3.20;99.90
2999;DHT22;1509;51.964;7.628;2022-12-05T06:40:24;3.20;99.90
2999;DHT22;1509;51.964;7.628;2022-12-05T06:42:49;3.20;99.90
2999;DHT22;1509;51.964;7.628;2022-12-05T06:45:15;3.20;99.90
2999;DHT22;1509;51.964;7.628;2022-12-05T06:47:40;3.20;99.90
2999;DHT22;1509;51.964;7.628;2022-12-05T06:50:07;3.30;99.90
2999;DHT22;1509;51.964;7.628;2022-12-05T06:52:32;3.30;99.90
2999;DHT22;1509;51.964;7.628;2022-12-05T06:54:58;3.20;99.90
2999;DHT22;1509;51.964;7.628;2022-12-05T06:57:24;3.30;99.90
2999;DHT22;1509;51.964;7.628;2022-12-05T06:59:50;3.20;99.90
2999;DHT22;1509;51.964;7.628;2022-12-05T07:02:15;3.20;99.90
2999;DHT22;1509;51.964;7.628;2022-12-05T07:04:41;3.20;99.90
2999;DHT22;1509;51.964;7.628;2022-12-05T07:07:07;3.20;99.90
2999;DHT22;1509;51.964;7.628;2022-12-05T07:09:33;3.20;99.90
2999;DHT22;1509;51.964;7.628;2022-12-05T07:12:12;3.20;99.90
2999;DHT22;1509;51.964;7.628;2022-12-05T07:14:37;3.20;99.90
2999;DHT22;1509;51.964;7.628;2022-12-05T07:17:03;3.20;99.90
2999;DHT22;1509;51.964;7.628;2022-12-05T07:19:29;3.20;99.90
2999;DHT22;1509;51.964;7.628;2022-12-05T07:21:55;3.20;99.90
2999;DHT22;1509;51.964;7.628;2022-12-05T07:24:20;3.20;99.90
2999;DHT22;1509;51.964;7.628;2022-12-05T07:26:46;3.20;99.90
2999;DHT22;1509;51.964;7.628;2022-12-05T07:29:11;3.20;99.90
2999;DHT22;1509;51.964;7.628;2022-12-05T07:31:37;3.30;99.90
2999;DHT22;1509;51.964;7.628;2022-12-05T07:34:03;3.20;99.90
2999;DHT22;1509;51.964;7.628;2022-12-05T07:36:28;3.20;99.90
2999;DHT22;1509;51.964;7.628;2022-12-05T07:38:55;3.20;99.90
2999;DHT22;1509;51.964;7.628;2022-12-05T07:41:29;3.20;99.90
2999;DHT22;1509;51.964;7.628;2022-12-05T07:43:56;3.20;99.90
2999;DHT22;1509;51.964;7.628;2022-12-05T07:46:23;3.20;99.90
2999;DHT22;1509;51.964;7.628;2022-12-05T07:48:49;3.20;99.90
2999;DHT22;1509;51.964;7.628;2022-12-05T07:51:16;3.20;99.90
2999;DHT22;1509;51.964;7.628;2022-12-05T07:53:42;3.20;99.90
2999;DHT22;1509;51.964;7.628;2022-12-05T07:56:12;3.20;99.90
2999;DHT22;1509;51.964;7.628;2022-12-05T07:58:47;3.30;99.90
2999;DHT22;1509;51.964;7.628;2022-12-05T08:01:17;3.20;99.90
2999;DHT22;1509;51.964;7.628;2022-12-05T08:03:44;3.20;99.90
2999;DHT22;1509;51.964;7.628;2022-12-05T08:06:13;3.10;99.90
2999;DHT22;1509;51.964;7.628;2022-12-05T08:08:39;3.10;99.90
2999;DHT22;1509;51.964;7.628;2022-12-05T08:11:13;3.10;99.90
2999;DHT22;1509;51.964;7.628;2022-12-05T08:13:39;3.10;99.90
2999;DHT22;1509;51.964;7.628;2022-12-05T08:16:16;3.10;99.90
2999;DHT22;1509;51.964;7.628;2022-12-05T08:18:43;3.10;99.90
2999;DHT22;1509;51.964;7.628;2022-12-05T08:21:10;3.00;99.90
2999;DHT22;1509;51.964;7.628;2022-12-05T08:23:37;3.10;99.90
2999;DHT22;1509;51.964;7.628;2022-12-05T08:26:27;3.10;99.90
2999;DHT22;1509;51.964;7.628;2022-12-05T08:28:54;3.10;99.90
2999;DHT22;1509;51.964;7.628;2022-12-05T08:31:22;3.00;99.90
2999;DHT22;1509;51.964;7.628;2022-12-05T08:33:49;3.00;99.90
2999;DHT22;1509;51.964;7.628;2022-12-05T08:36:16;3.00;99.90
2999;DHT22;1509;51.964;7.628;2022-12-05T08:38:42;3.00;99.90
2999;DHT22;1509;51.964;7.628;2022-12-05T08:41:11;3.00;99.90
2999;DHT22;1509;51.964;7.628;2022-12-05T08:43:37;3.00;99.90
2999;DHT22;1509;51.964;7.628;2022-12-05T08:46:03;3.00;99.90
2999;DHT22;1509;51.964;7.628;2022-12-05T08:48:30;2.90;99.90
2999;DHT22;1509;51.964;7.628;2022-12-05T08:50:57;2.90;99.90
2999;DHT22;1509;51.964;7.628;2022-12-05T08:53:24;2.90;99.90
2999;DHT22;1509;51.964;7.628;2022-12-05T08:55:51;3.00;99.90
2999;DHT22;1509;51.964;7.628;2022-12-05T08:58:16;3.00;99.90
2999;DHT22;1509;51.964;7.628;2022-12-05T09:00:42;3.10;99.90
2999;DHT22;1509;51.964;7.628;2022-12-05T09:03:11;3.10;99.90
2999;DHT22;1509;51.964;7.628;2022-12-05T09:05:37;3.10;99.90
2999;DHT22;1509;51.964;7.628;2022-12-05T09:08:03;3.10;99.90
2999;DHT22;1509;51.964;7.628;2022-12-05T09:10:29;3.10;99.90
2999;DHT22;1509;51.964;7.628;2022-12-05T09:12:55;3.10;99.90
2999;DHT22;1509;51.964;7.628;2022-12-05T09:15:20;3.20;99.90
2999;DHT22;1509;51.964;7.628;2022-12-05T09:17:46;3.10;99.90
2999;DHT22;1509;51.964;7.628;2022-12-05T09:20:12;3.10;99.90
2999;DHT22;1509;51.964;7.628;2022-12-05T09:22:39;3.10;99.90
2999;DHT22;1509;51.964;7.628;2022-12-05T09:25:05;3.10;99.90
2999;DHT22;1509;51.964;7.628;2022-12-05T09:27:31;3.00;99.90
2999;DHT22;1509;51.964;7.628;2022-12-05T09:29:57;3.00;99.90
2999;DHT22;1509;51.964;7.628;2022-12-05T09:32:22;3.00;99.90
2999;DHT22;1509;51.964;7.628;2022-12-05T09:34:48;3.00;99.90
2999;DHT22;1509;51.964;7.628;2022-12-05T09:37:14;3.00;99.90
2999;DHT22;1509;51.964;7.628;2022-12-05T09:39:42;2.90;99.90
2999;DHT22;1509;51.964;7.628;2022-12-05T09:45:22;2.90;99.90
2999;DHT22;1509;51.964;7.628;2022-12-05T09:50:37;2.90;99.90
2999;DHT22;1509;51.964;7.628;2022-12-05T09:55:50;2.80;99.90
2999;DHT22;1509;51.964;7.628;2022-12-05T10:03:46;2.80;99.90
2999;DHT22;1509;51.964;7.628;2022-12-05T10:06:21;2.80;99.90
2999;DHT22;1509;51.964;7.628;2022-12-05T10:15:03;2.70;99.90
2999;DHT22;1509;51.964;7.628;2022-12-05T10:17:37;2.70;99.90
2999;DHT22;1509;51.964;7.628;2022-12-05T10:22:45;2.70;99.90
2999;DHT22;1509;51.964;7.628;2022-12-05T10:25:13;2.80;99.90
2999;DHT22;1509;51.964;7.628;2022-12-05T10:27:46;2.80;99.90
2999;DHT22;1509;51.964;7.628;2022-12-05T10:30:14;2.80;99.90
2999;DHT22;1509;51.964;7.628;2022-12-05T10:32:56;2.80;99.90
2999;DHT22;1509;51.964;7.628;2022-12-05T10:35:30;2.80;99.90
2999;DHT22;1509;51.964;7.628;2022-12-05T10:37:59;2.80;99.90
2999;DHT22;1509;51.964;7.628;2022-12-05T10:40:34;2.80;99.90
2999;DHT22;1509;51.964;7.628;2022-12-05T10:43:00;2.80;99.90
2999;DHT22;1509;51.964;7.628;2022-12-05T10:45:26;2.80;99.90
2999;DHT22;1509;51.964;7.628;2022-12-05T10:47:56;2.70;99.90
2999;DHT22;1509;51.964;7.628;2022-12-05T10:50:29;2.60;99.90
2999;DHT22;1509;51.964;7.628;2022-12-05T10:52:56;2.60;99.90
2999;DHT22;1509;51.964;7.628;2022-12-05T10:55:27;2.60;99.90
2999;DHT22;1509;51.964;7.628;2022-12-05T11:00:41;2.50;99.90
2999;DHT22;1509;51.964;7.628;2022-12-05T11:03:37;2.50;99.90
2999;DHT22;1509;51.964;7.628;2022-12-05T11:06:21;2.40;99.90
2999;DHT22;1509;51.964;7.628;2022-12-05T11:08:55;2.40;99.90
2999;DHT22;1509;51.964;7.628;2022-12-05T11:11:26;2.40;99.90
2999;DHT22;1509;51.964;7.628;2022-12-05T11:14:00;2.30;99.90
2999;DHT22;1509;51.964;7.628;2022-12-05T11:16:32;2.30;99.90
2999;DHT22;1509;51.964;7.628;2022-12-05T11:21:47;2.20;99.90
2999;DHT22;1509;51.964;7.628;2022-12-05T11:24:32;2.20;99.90
2999;DHT22;1509;51.964;7.628;2022-12-05T11:27:20;2.20;99.90
2999;DHT22;1509;51.964;7.628;2022-12-05T11:30:02;2.10;99.90
2999;DHT22;1509;51.964;7.628;2022-12-05T11:32:30;2.10;99.90
2999;DHT22;1509;51.964;7.628;2022-12-05T11:38:01;1.90;99.90
2999;DHT22;1509;51.964;7.628;2022-12-05T11:40:38;1.90;99.90
2999;DHT22;1509;51.964;7.628;2022-12-05T11:51:39;1.30;99.90
2999;DHT22;1509;51.964;7.628;2022-12-05T11:56:38;1.40;99.90
2999;DHT22;1509;51.964;7.628;2022-12-05T11:59:40;1.30;99.90
2999;DHT22;1509;51.964;7.628;2022-12-05T12:05:19;1.50;99.90
2999;DHT22;1509;51.964;7.628;2022-12-05T12:11:02;1.50;99.90
2999;DHT22;1509;51.964;7.628;2022-12-05T12:13:42;1.50;99.90
2999;DHT22;1509;51.964;7.628;2022-12-05T12:27:26;1.60;99.90
2999;DHT22;1509;51.964;7.628;2022-12-05T12:30:05;1.50;99.90
2999;DHT22;1509;51.964;7.628;2022-12-05T12:32:57;1.50;99.90
2999;DHT22;1509;51.964;7.628;2022-12-05T12:35:29;1.60;99.90
2999;DHT22;1509;51.964;7.628;2022-12-05T12:38:34;1.60;99.90
2999;DHT22;1509;51.964;7.628;2022-12-05T12:46:49;1.50;99.90
2999;DHT22;1509;51.964;7.628;2022-12-05T12:52:03;1.40;99.90
2999;DHT22;1509;51.964;7.628;2022-12-05T12:57:41;1.40;99.90
2999;DHT22;1509;51.964;7.628;2022-12-05T13:00:47;1.40;99.90
2999;DHT22;1509;51.964;7.628;2022-12-05T13:08:46;1.30;99.90
2999;DHT22;1509;51.964;7.628;2022-12-05T13:11:14;1.20;99.90
2999;DHT22;1509;51.964;7.628;2022-12-05T13:13:52;1.20;99.90
2999;DHT22;1509;51.964;7.628;2022-12-05T13:16:27;1.20;99.90
2999;DHT22;1509;51.964;7.628;2022-12-05T13:18:56;1.20;99.90
2999;DHT22;1509;51.964;7.628;2022-12-05T13:21:23;1.20;99.90
2999;DHT22;1509;51.964;7.628;2022-12-05T13:23:52;1.20;99.90
2999;DHT22;1509;51.964;7.628;2022-12-05T13:26:20;1.20;99.90
2999;DHT22;1509;51.964;7.628;2022-12-05T13:29:03;1.20;99.90
2999;DHT22;1509;51.964;7.628;2022-12-05T13:31:40;1.10;99.90
2999;DHT22;1509;51.964;7.628;2022-12-05T13:34:32;1.20;99.90
2999;DHT22;1509;51.964;7.628;2022-12-05T13:37:24;1.20;99.90
2999;DHT22;1509;51.964;7.628;2022-12-05T13:40:30;1.20;99.90
2999;DHT22;1509;51.964;7.628;2022-12-05T13:43:18;1.20;99.90
2999;DHT22;1509;51.964;7.628;2022-12-05T13:48:30;1.30;99.90
2999;DHT22;1509;51.964;7.628;2022-12-05T13:51:03;1.30;99.90
2999;DHT22;1509;51.964;7.628;2022-12-05T13:53:48;1.30;99.90
2999;DHT22;1509;51.964;7.628;2022-12-05T13:56:44;1.40;99.90
2999;DHT22;1509;51.964;7.628;2022-12-05T13:59:11;1.40;99.90
2999;DHT22;1509;51.964;7.628;2022-12-05T14:01:43;1.40;99.90
2999;DHT22;1509;51.964;7.628;2022-12-05T14:04:23;1.50;99.90
2999;DHT22;1509;51.964;7.628;2022-12-05T14:07:08;1.50;99.90
2999;DHT22;1509;51.964;7.628;2022-12-05T14:09:53;1.50;99.90
2999;DHT22;1509;51.964;7.628;2022-12-05T14:17:40;1.50;99.90
2999;DHT22;1509;51.964;7.628;2022-12-05T14:34:34;1.60;99.90
2999;DHT22;1509;51.964;7.628;2022-12-05T14:37:03;1.60;99.90
2999;DHT22;1509;51.964;7.628;2022-12-05T14:39:35;1.60;99.90
2999;DHT22;1509;51.964;7.628;2022-12-05T14:42:04;1.60;99.90
2999;DHT22;1509;51.964;7.628;2022-12-05T14:44:32;1.70;99.90
2999;DHT22;1509;51.964;7.628;2022-12-05T14:47:02;1.70;99.90
2999;DHT22;1509;51.964;7.628;2022-12-05T14:49:52;1.70;99.90
2999;DHT22;1509;51.964;7.628;2022-12-05T14:52:24;1.70;99.90
2999;DHT22;1509;51.964;7.628;2022-12-05T14:54:52;1.60;99.90
2999;DHT22;1509;51.964;7.628;2022-12-05T14:57:18;1.60;99.90
2999;DHT22;1509;51.964;7.628;2022-12-05T15:00:05;1.60;99.90
2999;DHT22;1509;51.964;7.628;2022-12-05T15:02:35;1.60;99.90
2999;DHT22;1509;51.964;7.628;2022-12-05T15:07:42;1.70;99.90
2999;DHT22;1509;51.964;7.628;2022-12-05T15:12:49;1.70;99.90
2999;DHT22;1509;51.964;7.628;2022-12-05T15:20:50;1.70;99.90
2999;DHT22;1509;51.964;7.628;2022-12-05T15:23:37;1.60;99.90
2999;DHT22;1509;51.964;7.628;2022-12-05T15:26:07;1.40;99.90
2999;DHT22;1509;51.964;7.628;2022-12-05T15:28:36;1.50;99.90
2999;DHT22;1509;51.964;7.628;2022-12-05T15:31:03;1.50;99.90
2999;DHT22;1509;51.964;7.628;2022-12-05T15:33:29;1.60;99.90
2999;DHT22;1509;51.964;7.628;2022-12-05T15:35:55;1.60;99.90
2999;DHT22;1509;51.964;7.628;2022-12-05T15:38:29;1.60;99.90
2999;DHT22;1509;51.964;7.628;2022-12-05T15:40:56;1.60;99.90
2999;DHT22;1509;51.964;7.628;2022-12-05T15:43:31;1.60;99.90
2999;DHT22;1509;51.964;7.628;2022-12-05T15:46:20;1.60;99.90
2999;DHT22;1509;51.964;7.628;2022-12-05T15:48:49;1.50;99.90
2999;DHT22;1509;51.964;7.628;2022-12-05T15:51:17;1.50;99.90
2999;DHT22;1509;51.964;7.628;2022-12-05T15:53:54;1.50;99.90
2999;DHT22;1509;51.964;7.628;2022-12-05T15:56:32;1.50;99.90
2999;DHT22;1509;51.964;7.628;2022-12-05T15:59:18;1.50;99.90
2999;DHT22;1509;51.964;7.628;2022-12-05T16:01:48;1.50;99.90
2999;DHT22;1509;51.964;7.628;2022-12-05T16:06:51;1.40;99.90
2999;DHT22;1509;51.964;7.628;2022-12-05T16:09:20;1.40;99.90
2999;DHT22;1509;51.964;7.628;2022-12-05T16:14:21;1.30;99.90
2999;DHT22;1509;51.964;7.628;2022-12-05T16:16:47;1.30;99.90
2999;DHT22;1509;51.964;7.628;2022-12-05T16:19:15;1.30;99.90
2999;DHT22;1509;51.964;7.628;2022-12-05T16:21:45;1.30;99.90
2999;DHT22;1509;51.964;7.628;2022-12-05T16:24:17;1.30;99.90
2999;DHT22;1509;51.964;7.628;2022-12-05T16:26:58;1.30;99.90
2999;DHT22;1509;51.964;7.628;2022-12-05T16:29:27;1.30;99.90
2999;DHT22;1509;51.964;7.628;2022-12-05T16:31:57;1.30;99.90
2999;DHT22;1509;51.964;7.628;2022-12-05T16:34:24;1.40;99.90
2999;DHT22;1509;51.964;7.628;2022-12-05T16:36:52;1.50;99.90
2999;DHT22;1509;51.964;7.628;2022-12-05T16:39:19;1.60;99.90
2999;DHT22;1509;51.964;7.628;2022-12-05T16:41:45;1.50;99.90
2999;DHT22;1509;51.964;7.628;2022-12-05T16:46:56;1.60;99.90
2999;DHT22;1509;51.964;7.628;2022-12-05T16:51:58;1.70;99.90
2999;DHT22;1509;51.964;7.628;2022-12-05T16:54:24;1.70;99.90
2999;DHT22;1509;51.964;7.628;2022-12-05T16:56:50;1.70;99.90
2999;DHT22;1509;51.964;7.628;2022-12-05T16:59:24;1.60;99.90
2999;DHT22;1509;51.964;7.628;2022-12-05T17:01:51;1.70;99.90
2999;DHT22;1509;51.964;7.628;2022-12-05T17:04:17;1.60;99.90
2999;DHT22;1509;51.964;7.628;2022-12-05T17:06:45;1.60;99.90
2999;DHT22;1509;51.964;7.628;2022-12-05T17:09:11;1.60;99.90
2999;DHT22;1509;51.964;7.628;2022-12-05T17:11:39;1.50;99.90
2999;DHT22;1509;51.964;7.628;2022-12-05T17:14:08;1.60;99.90
2999;DHT22;1509;51.964;7.628;2022-12-05T17:16:34;1.60;99.90
2999;DHT22;1509;51.964;7.628;2022-12-05T17:18:59;1.70;99.90
2999;DHT22;1509;51.964;7.628;2022-12-05T17:21:29;1.70;99.90
2999;DHT22;1509;51.964;7.628;2022-12-05T17:23:58;1.70;99.90
2999;DHT22;1509;51.964;7.628;2022-12-05T17:26:24;1.80;99.90
2999;DHT22;1509;51.964;7.628;2022-12-05T17:28:50;1.70;99.90
2999;DHT22;1509;51.964;7.628;2022-12-05T17:31:18;1.70;99.90
2999;DHT22;1509;51.964;7.628;2022-12-05T17:33:45;1.70;99.90
2999;DHT22;1509;51.964;7.628;2022-12-05T17:36:11;1.60;99.90
2999;DHT22;1509;51.964;7.628;2022-12-05T17:38:37;1.60;99.90
2999;DHT22;1509;51.964;7.628;2022-12-05T17:41:03;1.50;99.90
2999;DHT22;1509;51.964;7.628;2022-12-05T17:43:29;1.30;99.90
2999;DHT22;1509;51.964;7.628;2022-12-05T17:45:54;1.20;99.90
2999;DHT22;1509;51.964;7.628;2022-12-05T17:48:20;1.20;99.90
2999;DHT22;1509;51.964;7.628;2022-12-05T17:50:47;1.10;99.90
2999;DHT22;1509;51.964;7.628;2022-12-05T17:53:17;1.10;99.90
2999;DHT22;1509;51.964;7.628;2022-12-05T17:55:43;1.10;99.90
2999;DHT22;1509;51.964;7.628;2022-12-05T17:58:11;1.10;99.90
2999;DHT22;1509;51.964;7.628;2022-12-05T18:00:39;1.20;99.90
2999;DHT22;1509;51.964;7.628;2022-12-05T18:03:05;1.10;99.90
2999;DHT22;1509;51.964;7.628;2022-12-05T18:05:31;1.20;99.90
2999;DHT22;1509;51.964;7.628;2022-12-05T18:07:57;1.20;99.90
2999;DHT22;1509;51.964;7.628;2022-12-05T18:10:22;1.30;99.90
2999;DHT22;1509;51.964;7.628;2022-12-05T18:12:49;1.20;99.90
2999;DHT22;1509;51.964;7.628;2022-12-05T18:15:16;1.30;99.90
2999;DHT22;1509;51.964;7.628;2022-12-05T18:17:42;1.20;99.90
2999;DHT22;1509;51.964;7.628;2022-12-05T18:20:11;1.30;99.90
2999;DHT22;1509;51.964;7.628;2022-12-05T18:22:37;1.30;99.90
2999;DHT22;1509;51.964;7.628;2022-12-05T18:25:03;1.30;99.90
2999;DHT22;1509;51.964;7.628;2022-12-05T18:27:30;1.30;99.90
2999;DHT22;1509;51.964;7.628;2022-12-05T18:29:56;1.30;99.90
2999;DHT22;1509;51.964;7.628;2022-12-05T18:32:21;1.30;99.90
2999;DHT22;1509;51.964;7.628;2022-12-05T18:34:47;1.30;99.90
2999;DHT22;1509;51.964;7.628;2022-12-05T18:37:13;1.20;99.90
2999;DHT22;1509;51.964;7.628;2022-12-05T18:39:40;1.20;99.90
2999;DHT22;1509;51.964;7.628;2022-12-05T18:42:06;1.20;99.90
2999;DHT22;1509;51.964;7.628;2022-12-05T18:44:31;1.20;99.90
2999;DHT22;1509;51.964;7.628;2022-12-05T18:46:57;1.10;99.90
2999;DHT22;1509;51.964;7.628;2022-12-05T18:49:23;1.20;99.90
2999;DHT22;1509;51.964;7.628;2022-12-05T18:51:49;1.20;99.90
2999;DHT22;1509;51.964;7.628;2022-12-05T18:54:15;1.30;99.90
2999;DHT22;1509;51.964;7.628;2022-12-05T18:56:41;1.30;99.90
2999;DHT22;1509;51.964;7.628;2022-12-05T18:59:14;1.40;99.90
2999;DHT22;1509;51.964;7.628;2022-12-05T19:01:40;1.40;99.90
2999;DHT22;1509;51.964;7.628;2022-12-05T19:04:08;1.40;99.90
2999;DHT22;1509;51.964;7.628;2022-12-05T19:06:37;1.40;99.90
2999;DHT22;1509;51.964;7.628;2022-12-05T19:09:06;1.40;99.90
2999;DHT22;1509;51.964;7.628;2022-12-05T19:11:32;1.40;99.90
2999;DHT22;1509;51.964;7.628;2022-12-05T19:14:00;1.40;99.90